Terminal Aerodrome Forecast
Issued by NWS Twin Cities, MN

Home | Current Version | Previous Version | Text Only | Print | Product List | Glossary Off
Versions: 1 2 3 4 5 6 7 8 9 10 11 12 13 14 15 16 17

000
FTUS43 KMPX 270500
TAFEAU
TAF
KEAU 270525Z 2706/2806 VRB02KT P6SM BKN100 BKN250
      TEMPO 2706/2708 P6SM -SHRA
     FM271500 07005KT P6SM SCT120 SCT250=

USA.gov is the U.S. government's official web portal to all federal, state and local government web resources and services.